createdAt,value
2023-03-04T00:01:47.303Z,40.42
2023-03-04T00:04:49.093Z,42.22
2023-03-04T00:07:50.910Z,40.85
2023-03-04T00:10:52.723Z,44.83
2023-03-04T00:13:55.640Z,49.90
2023-03-04T00:16:57.635Z,51.22
2023-03-04T00:19:59.710Z,51.42
2023-03-04T00:23:01.590Z,42.05
2023-03-04T00:26:03.432Z,43.60
2023-03-04T00:29:05.476Z,43.70
2023-03-04T00:32:07.426Z,45.72
2023-03-04T00:35:09.655Z,44.25
2023-03-04T00:38:11.474Z,42.00
2023-03-04T00:41:13.342Z,43.00
2023-03-04T00:44:16.583Z,44.72
2023-03-04T00:47:18.466Z,44.63
2023-03-04T00:50:20.423Z,43.17
2023-03-04T00:53:24.106Z,43.38
2023-03-04T00:56:25.979Z,44.83
2023-03-04T00:59:27.748Z,41.15
2023-03-04T01:02:29.617Z,39.17
2023-03-04T01:05:34.174Z,40.03
2023-03-04T01:08:36.333Z,39.08
2023-03-04T01:11:38.201Z,41.15
2023-03-04T01:14:40.032Z,39.00
2023-03-04T01:17:42.167Z,39.78
2023-03-04T01:20:44.010Z,38.92
2023-03-04T01:23:45.781Z,32.42
2023-03-04T01:26:47.548Z,30.02
2023-03-04T01:29:49.388Z,29.27
2023-03-04T01:32:51.143Z,30.25
2023-03-04T01:35:53.077Z,28.88
2023-03-04T01:38:54.910Z,26.90
2023-03-04T01:41:56.894Z,28.88
2023-03-04T01:44:58.854Z,27.80
2023-03-04T01:48:00.746Z,27.40
2023-03-04T01:51:04.060Z,28.23
2023-03-04T01:54:06.213Z,27.73
2023-03-04T01:57:19.381Z,26.95
2023-03-04T02:00:31.261Z,26.80
2023-03-04T02:03:33.123Z,26.52
2023-03-04T02:06:38.438Z,26.25
2023-03-04T02:09:40.346Z,29.10
2023-03-04T02:12:42.974Z,29.02
2023-03-04T02:15:46.085Z,29.73
2023-03-04T02:18:48.069Z,28.17
2023-03-04T02:21:49.768Z,26.80
2023-03-04T02:25:11.122Z,27.40
2023-03-04T02:28:13.034Z,25.25
2023-03-04T02:31:25.061Z,24.10
2023-03-04T02:34:36.889Z,27.50
2023-03-04T02:37:38.789Z,27.05
2023-03-04T02:40:45.137Z,26.58
2023-03-04T02:43:50.335Z,26.38
2023-03-04T02:46:53.880Z,26.80
2023-03-04T02:49:56.426Z,26.65
2023-03-04T02:52:58.208Z,26.98
2023-03-04T02:55:59.995Z,27.02
2023-03-04T02:59:06.387Z,25.80
2023-03-04T03:02:09.276Z,25.55
2023-03-04T03:05:13.022Z,26.17
2023-03-04T03:08:15.669Z,22.83
2023-03-04T03:11:17.532Z,25.60
2023-03-04T03:14:20.036Z,26.10
2023-03-04T03:17:22.018Z,25.45
2023-03-04T03:20:23.932Z,25.58
2023-03-04T03:23:26.596Z,24.63
2023-03-04T03:26:28.327Z,26.52
2023-03-04T03:29:30.122Z,25.63
2023-03-04T03:32:32.004Z,25.33
2023-03-04T03:35:34.364Z,25.45
2023-03-04T03:38:37.143Z,27.63
2023-03-04T03:41:38.870Z,24.00
2023-03-04T03:44:40.699Z,24.77
2023-03-04T03:47:42.702Z,25.15
2023-03-04T03:50:45.612Z,24.65
2023-03-04T03:53:47.465Z,24.80
2023-03-04T03:56:49.193Z,25.08
2023-03-04T03:59:51.024Z,23.35
2023-03-04T04:02:55.807Z,25.63
2023-03-04T04:05:57.680Z,25.50
2023-03-04T04:08:59.745Z,25.63
2023-03-04T04:12:01.546Z,25.85
2023-03-04T04:15:04.043Z,26.27
2023-03-04T04:18:07.264Z,24.70
2023-03-04T04:21:09.696Z,24.48
2023-03-04T04:24:11.777Z,24.85
2023-03-04T04:27:14.075Z,24.83
2023-03-04T04:30:16.088Z,26.05
2023-03-04T04:33:18.079Z,25.70
2023-03-04T04:36:20.014Z,24.10
2023-03-04T04:39:22.513Z,24.23
2023-03-04T04:42:24.490Z,24.88
2023-03-04T04:45:26.212Z,25.35
2023-03-04T04:48:28.105Z,23.90
2023-03-04T04:51:30.036Z,24.15
2023-03-04T04:54:32.000Z,26.50
2023-03-04T04:57:34.745Z,26.70
2023-03-04T05:00:36.591Z,27.48
2023-03-04T05:03:40.087Z,29.45
2023-03-04T05:06:42.150Z,29.20
2023-03-04T05:09:44.024Z,31.90
2023-03-04T05:12:45.832Z,24.77
2023-03-04T05:15:48.048Z,30.40
2023-03-04T05:18:50.130Z,32.35
2023-03-04T05:21:52.034Z,29.35
2023-03-04T05:24:54.006Z,32.35
2023-03-04T05:27:55.770Z,30.73
2023-03-04T05:30:57.771Z,29.90
2023-03-04T05:33:59.548Z,29.40
2023-03-04T05:37:01.549Z,24.10
2023-03-04T05:40:04.689Z,30.27
2023-03-04T05:43:06.659Z,28.52
2023-03-04T05:46:13.277Z,28.83
2023-03-04T05:49:15.094Z,26.98
2023-03-04T05:52:16.789Z,28.92
2023-03-04T05:55:19.110Z,30.23
2023-03-04T05:58:21.812Z,32.10
2023-03-04T06:01:23.742Z,29.52
2023-03-04T06:04:25.671Z,29.92
2023-03-04T06:07:27.446Z,29.55
2023-03-04T06:10:29.295Z,28.85
2023-03-04T06:13:31.359Z,29.02
2023-03-04T06:16:33.624Z,29.23
2023-03-04T06:19:35.734Z,29.35
2023-03-04T06:22:37.727Z,26.70
2023-03-04T06:25:39.622Z,27.65
2023-03-04T06:28:42.644Z,27.45
2023-03-04T06:31:44.454Z,28.08
2023-03-04T06:34:46.376Z,27.73
2023-03-04T06:37:48.515Z,28.08
2023-03-04T06:40:50.364Z,29.00
2023-03-04T06:43:54.467Z,28.40
2023-03-04T06:46:56.426Z,29.33
2023-03-04T06:49:58.479Z,30.55
2023-03-04T06:53:00.219Z,30.30
2023-03-04T06:56:02.121Z,29.23
2023-03-04T06:59:03.961Z,26.90
2023-03-04T07:02:06.400Z,30.42
2023-03-04T07:05:10.438Z,33.13
2023-03-04T07:08:12.396Z,32.95
2023-03-04T07:11:15.125Z,34.78
2023-03-04T07:14:16.965Z,33.22
2023-03-04T07:17:18.660Z,36.08
2023-03-04T07:20:20.530Z,34.47
2023-03-04T07:23:22.469Z,29.10
2023-03-04T07:26:24.414Z,28.95
2023-03-04T07:29:26.244Z,30.88
2023-03-04T07:32:28.116Z,26.45
2023-03-04T07:35:30.096Z,22.83
2023-03-04T07:38:32.183Z,24.13
2023-03-04T07:41:37.405Z,22.27
2023-03-04T07:44:39.503Z,22.92
2023-03-04T07:47:41.609Z,22.92
2023-03-04T07:50:43.508Z,25.23
2023-03-04T07:53:49.073Z,27.65
2023-03-04T07:56:51.146Z,24.67
2023-03-04T07:59:53.058Z,28.98
2023-03-04T08:02:55.212Z,30.55
2023-03-04T08:05:57.140Z,24.83
2023-03-04T08:09:06.008Z,33.35
2023-03-04T08:12:07.841Z,28.33
2023-03-04T08:15:10.063Z,31.42
2023-03-04T08:18:12.779Z,29.10
2023-03-04T08:21:16.761Z,34.83
2023-03-04T08:24:18.645Z,29.20
2023-03-04T08:27:20.597Z,33.38
2023-03-04T08:30:22.324Z,33.55
2023-03-04T08:33:24.140Z,33.40
2023-03-04T08:36:25.984Z,34.17
2023-03-04T08:39:27.749Z,34.63
2023-03-04T08:42:29.448Z,37.55
2023-03-04T08:45:31.293Z,32.78
2023-03-04T08:48:33.753Z,35.15
2023-03-04T08:51:35.930Z,37.20
2023-03-04T08:54:37.878Z,35.95
2023-03-04T08:57:39.729Z,37.63
2023-03-04T09:00:44.233Z,30.00
2023-03-04T09:03:46.084Z,29.52
2023-03-04T09:06:47.909Z,32.42
2023-03-04T09:09:49.796Z,33.72
2023-03-04T09:12:52.176Z,32.92
2023-03-04T09:15:54.154Z,27.63
2023-03-04T09:18:56.159Z,29.17
2023-03-04T09:21:59.463Z,30.20
2023-03-04T09:25:01.341Z,27.23
2023-03-04T09:28:03.365Z,29.13
2023-03-04T09:31:11.966Z,26.73
2023-03-04T09:34:13.899Z,29.13
2023-03-04T09:37:15.862Z,27.50
2023-03-04T09:40:23.845Z,28.33
2023-03-04T09:43:32.105Z,30.83
2023-03-04T09:49:41.621Z,28.80
2023-03-04T09:52:55.532Z,30.48
2023-03-04T09:55:59.123Z,29.38
2023-03-04T09:59:24.175Z,26.88
2023-03-04T10:02:47.162Z,29.40
2023-03-04T10:05:55.046Z,32.42
2023-03-04T10:09:04.886Z,32.30
2023-03-04T10:12:12.437Z,33.35
2023-03-04T10:15:38.241Z,28.63
2023-03-04T10:18:48.393Z,34.20
2023-03-04T10:21:52.291Z,31.85
2023-03-04T10:24:57.589Z,32.63
2023-03-04T10:28:17.456Z,33.50
2023-03-04T10:31:34.435Z,32.50
2023-03-04T10:34:36.247Z,35.70
2023-03-04T10:37:50.979Z,33.63
2023-03-04T10:40:52.789Z,32.65
2023-03-04T10:44:04.982Z,29.65
2023-03-04T10:47:11.791Z,34.78
2023-03-04T10:50:23.109Z,30.50
2023-03-04T10:53:30.721Z,32.78
2023-03-04T10:56:39.897Z,33.63
2023-03-04T10:59:53.618Z,33.88
2023-03-04T11:03:29.690Z,36.97
2023-03-04T11:06:32.707Z,38.72
2023-03-04T11:09:34.520Z,33.08
2023-03-04T11:12:36.353Z,34.28
2023-03-04T11:15:58.360Z,33.60
2023-03-04T11:19:11.121Z,33.00
2023-03-04T11:22:17.222Z,33.78
2023-03-04T11:25:34.159Z,29.40
2023-03-04T11:28:44.890Z,30.83
2023-03-04T11:31:53.645Z,30.60
2023-03-04T11:35:01.546Z,22.85
2023-03-04T11:38:15.020Z,26.17
2023-03-04T11:41:23.753Z,32.40
2023-03-04T11:44:25.699Z,27.35
2023-03-04T11:47:42.244Z,30.00
2023-03-04T11:50:57.679Z,32.20
2023-03-04T11:54:14.372Z,28.95
2023-03-04T11:57:31.101Z,29.95
2023-03-04T12:00:51.047Z,33.33
2023-03-04T12:03:55.581Z,31.55
2023-03-04T12:07:35.759Z,31.05
2023-03-04T12:11:02.108Z,31.33
2023-03-04T12:14:23.056Z,33.22
2023-03-04T12:17:32.970Z,33.28
2023-03-04T12:20:46.538Z,32.58
2023-03-04T12:24:06.662Z,32.80
2023-03-04T12:27:14.395Z,33.97
2023-03-04T12:30:38.076Z,33.55
2023-03-04T12:33:57.883Z,34.90
2023-03-04T12:37:27.381Z,30.40
2023-03-04T12:40:38.487Z,32.88
2023-03-04T12:43:51.984Z,34.53
2023-03-04T12:47:11.726Z,32.47
2023-03-04T12:50:55.141Z,33.97
2023-03-04T12:54:03.082Z,34.55
2023-03-04T12:57:12.612Z,30.83
2023-03-04T13:00:27.111Z,34.75
2023-03-04T13:03:31.947Z,34.63
2023-03-04T13:06:49.129Z,35.72
2023-03-04T13:10:09.820Z,35.08
2023-03-04T13:13:38.398Z,35.92
2023-03-04T13:16:44.094Z,33.45
2023-03-04T13:19:51.118Z,35.80
2023-03-04T13:23:05.247Z,35.08
2023-03-04T13:26:28.746Z,34.50
2023-03-04T13:29:33.900Z,34.45
2023-03-04T13:32:38.736Z,35.20
2023-03-04T13:35:49.708Z,36.90
2023-03-04T13:39:23.515Z,35.17
2023-03-04T13:42:44.759Z,35.92
2023-03-04T13:45:46.555Z,37.05
2023-03-04T13:48:51.499Z,35.85
2023-03-04T13:51:53.661Z,34.55
2023-03-04T13:55:33.839Z,36.00
2023-03-04T13:58:36.755Z,34.75
2023-03-04T14:01:41.636Z,36.05
2023-03-04T14:04:54.572Z,33.42
2023-03-04T14:07:56.377Z,35.53
2023-03-04T14:10:58.345Z,34.30
2023-03-04T14:14:04.622Z,36.22
2023-03-04T14:17:07.177Z,32.88
2023-03-04T14:20:27.916Z,34.25
2023-03-04T14:23:36.479Z,34.55
2023-03-04T14:26:39.295Z,31.77
2023-03-04T14:29:41.065Z,33.38
2023-03-04T14:32:43.259Z,33.97
2023-03-04T14:35:50.698Z,33.28
2023-03-04T14:38:58.053Z,34.23
2023-03-04T14:42:07.554Z,33.30
2023-03-04T14:45:15.260Z,34.08
2023-03-04T14:48:33.442Z,32.35
2023-03-04T14:51:41.683Z,32.55
2023-03-04T14:54:43.647Z,33.20
2023-03-04T14:57:58.341Z,33.47
2023-03-04T15:01:07.548Z,32.47
2023-03-04T15:04:12.281Z,36.17
2023-03-04T15:07:21.456Z,35.85
2023-03-04T15:10:27.871Z,34.28
2023-03-04T15:13:38.841Z,34.08
2023-03-04T15:16:56.751Z,34.75
2023-03-04T15:20:21.048Z,33.58
2023-03-04T15:23:23.177Z,32.63
2023-03-04T15:26:25.888Z,33.42
2023-03-04T15:29:27.640Z,33.90
2023-03-04T15:32:29.999Z,34.22
2023-03-04T15:35:33.493Z,34.35
2023-03-04T15:38:35.341Z,33.50
2023-03-04T15:41:37.304Z,33.78
2023-03-04T15:44:39.350Z,36.67
2023-03-04T15:47:41.064Z,36.55
2023-03-04T15:50:49.882Z,37.83
2023-03-04T15:53:54.874Z,34.58
2023-03-04T15:56:58.500Z,37.50
2023-03-04T16:00:00.562Z,37.30
2023-03-04T16:03:02.370Z,38.72
2023-03-04T16:06:08.386Z,38.78
2023-03-04T16:09:14.525Z,37.03
2023-03-04T16:12:16.397Z,37.60
2023-03-04T16:15:29.099Z,38.17
2023-03-04T16:18:31.161Z,39.03
2023-03-04T16:21:33.601Z,40.30
2023-03-04T16:24:35.387Z,39.17
2023-03-04T16:27:37.196Z,39.78
2023-03-04T16:30:39.533Z,40.53
2023-03-04T16:33:41.801Z,40.10
2023-03-04T16:36:43.723Z,40.47
2023-03-04T16:39:46.374Z,40.67
2023-03-04T16:42:48.148Z,39.35
2023-03-04T16:45:50.135Z,41.65
2023-03-04T16:48:51.976Z,41.05
2023-03-04T16:51:53.737Z,41.90
2023-03-04T16:54:56.308Z,42.33
2023-03-04T16:57:58.320Z,43.65
2023-03-04T17:01:00.804Z,38.88
2023-03-04T17:04:02.581Z,40.45
2023-03-04T17:07:04.567Z,38.88
2023-03-04T17:10:06.677Z,38.47
2023-03-04T17:13:08.882Z,37.70
2023-03-04T17:16:11.383Z,32.85
2023-03-04T17:19:13.115Z,32.53
2023-03-04T17:22:14.893Z,29.77
2023-03-04T17:25:16.801Z,31.38
2023-03-04T17:28:18.534Z,29.92
2023-03-04T17:31:21.189Z,28.38
2023-03-04T17:34:23.167Z,26.42
2023-03-04T17:37:25.727Z,25.83
2023-03-04T17:40:27.398Z,22.00
2023-03-04T17:43:29.226Z,22.52
2023-03-04T17:46:31.155Z,23.42
2023-03-04T17:49:34.340Z,22.25
2023-03-04T17:52:36.198Z,23.23
2023-03-04T17:55:37.979Z,21.55
2023-03-04T17:58:40.247Z,20.40
2023-03-04T18:01:45.137Z,18.95
2023-03-04T18:04:50.512Z,19.83
2023-03-04T18:07:52.444Z,15.98
2023-03-04T18:10:54.411Z,13.27
2023-03-04T18:13:56.683Z,11.57
2023-03-04T18:16:58.543Z,13.35
2023-03-04T18:20:01.733Z,12.13
2023-03-04T18:23:03.930Z,12.43
2023-03-04T18:26:05.855Z,11.25
2023-03-04T18:29:07.661Z,10.93
2023-03-04T18:32:09.628Z,9.50
2023-03-04T18:35:12.157Z,10.98
2023-03-04T18:38:13.912Z,10.63
2023-03-04T18:41:16.183Z,9.98
2023-03-04T18:44:17.986Z,9.23
2023-03-04T18:47:20.188Z,9.32
2023-03-04T18:50:24.610Z,9.95
2023-03-04T18:53:29.856Z,7.78
2023-03-04T18:56:38.259Z,6.95
2023-03-04T19:00:01.076Z,6.32
2023-03-04T19:03:12.277Z,6.32
2023-03-04T19:06:14.324Z,6.63
2023-03-04T19:09:16.267Z,6.25
2023-03-04T19:12:18.222Z,6.75
2023-03-04T19:15:20.252Z,6.80
2023-03-04T19:18:22.082Z,7.03
2023-03-04T19:21:23.810Z,6.25
2023-03-04T19:24:25.741Z,6.57
2023-03-04T19:27:27.801Z,7.38
2023-03-04T19:30:29.885Z,7.47
2023-03-04T19:33:31.809Z,7.60
2023-03-04T19:36:33.605Z,7.57
2023-03-04T19:39:35.411Z,7.55
2023-03-04T19:42:37.537Z,6.90
2023-03-04T19:45:39.320Z,6.88
2023-03-04T19:48:41.280Z,7.57
2023-03-04T19:51:43.066Z,7.72
2023-03-04T19:54:44.895Z,7.45
2023-03-04T19:57:46.668Z,9.27
2023-03-04T20:00:50.194Z,9.38
2023-03-04T20:03:52.079Z,9.23
2023-03-04T20:06:53.769Z,9.98
2023-03-04T20:09:56.398Z,10.15
2023-03-04T20:12:58.497Z,9.85
2023-03-04T20:16:00.399Z,9.00
2023-03-04T20:19:02.289Z,10.52
2023-03-04T20:22:05.698Z,11.98
2023-03-04T20:25:07.817Z,11.25
2023-03-04T20:28:12.565Z,12.52
2023-03-04T20:31:20.777Z,12.15
2023-03-04T20:37:25.112Z,10.63
2023-03-04T20:40:27.076Z,11.38
2023-03-04T20:43:31.260Z,11.10
2023-03-04T20:46:45.151Z,10.52
2023-03-04T20:49:47.011Z,11.90
2023-03-04T20:52:48.850Z,10.73
2023-03-04T20:55:50.587Z,8.35
2023-03-04T20:58:53.726Z,8.60
2023-03-04T21:01:55.458Z,8.38
2023-03-04T21:04:57.270Z,8.45
2023-03-04T21:07:59.335Z,8.05
2023-03-04T21:11:01.916Z,7.60
2023-03-04T21:14:03.696Z,7.80
2023-03-04T21:17:05.776Z,7.72
2023-03-04T21:20:08.384Z,7.82
2023-03-04T21:23:10.497Z,7.28
2023-03-04T21:26:12.290Z,7.05
2023-03-04T21:29:19.622Z,7.35
2023-03-04T21:32:26.886Z,7.40
2023-03-04T21:35:29.029Z,7.70
2023-03-04T21:38:30.924Z,7.65
2023-03-04T21:41:32.632Z,7.97
2023-03-04T21:44:48.706Z,7.80
2023-03-04T21:47:51.733Z,8.23
2023-03-04T21:50:54.324Z,9.65
2023-03-04T21:53:56.145Z,8.50
2023-03-04T21:56:57.940Z,8.73
2023-03-04T21:59:59.801Z,9.23
2023-03-04T22:03:01.558Z,8.15
2023-03-04T22:06:08.345Z,8.60
2023-03-04T22:09:12.179Z,8.35
2023-03-04T22:12:15.832Z,9.30
2023-03-04T22:15:18.241Z,8.90
2023-03-04T22:18:20.124Z,8.15
2023-03-04T22:21:22.977Z,9.02
2023-03-04T22:24:26.260Z,9.63
2023-03-04T22:27:28.118Z,11.32
2023-03-04T22:30:33.628Z,12.48
2023-03-04T22:33:37.255Z,23.40
2023-03-04T22:36:42.222Z,36.88
2023-03-04T22:39:44.012Z,28.00
2023-03-04T22:42:47.521Z,25.35
2023-03-04T22:45:49.277Z,22.17
2023-03-04T22:48:53.008Z,17.50
2023-03-04T22:51:54.917Z,17.58
2023-03-04T22:54:56.738Z,17.25
2023-03-04T22:57:58.449Z,16.42
2023-03-04T23:01:00.350Z,16.88
2023-03-04T23:04:03.949Z,16.63
2023-03-04T23:07:05.740Z,16.00
2023-03-04T23:10:12.211Z,15.55
2023-03-04T23:13:13.993Z,16.80
2023-03-04T23:16:16.984Z,16.10
2023-03-04T23:19:19.436Z,15.70
2023-03-04T23:22:21.295Z,14.27
2023-03-04T23:25:24.974Z,13.85
2023-03-04T23:28:26.708Z,13.77
2023-03-04T23:31:30.178Z,12.18
2023-03-04T23:34:32.077Z,13.63
2023-03-04T23:37:33.887Z,13.70
2023-03-04T23:40:35.817Z,12.82
2023-03-04T23:43:37.699Z,12.55
2023-03-04T23:46:40.241Z,12.52
2023-03-04T23:49:42.078Z,11.73
2023-03-04T23:52:44.112Z,12.48
2023-03-04T23:55:46.799Z,10.38
2023-03-04T23:58:49.722Z,11.63
